createdAt,value
2023-01-11T00:00:15.549Z,4.13
2023-01-11T00:01:16.062Z,4.12
2023-01-11T00:02:16.555Z,4.2
2023-01-11T00:03:17.267Z,4.09
2023-01-11T00:04:17.588Z,4.07
2023-01-11T00:05:17.679Z,4.1
2023-01-11T00:06:18.170Z,4.07
2023-01-11T00:07:18.556Z,4.07
2023-01-11T00:08:18.512Z,4.09
2023-01-11T00:09:19.725Z,4.06
2023-01-11T00:10:20.684Z,4.1
2023-01-11T00:11:21.630Z,4.02
2023-01-11T00:12:22.293Z,4.04
2023-01-11T00:13:22.964Z,4.13
2023-01-11T00:14:23.947Z,4.03
2023-01-11T00:15:24.450Z,4.07
2023-01-11T00:16:24.836Z,4.14
2023-01-11T00:17:25.367Z,4.09
2023-01-11T00:18:25.297Z,4.18
2023-01-11T00:19:25.788Z,4.13
2023-01-11T00:20:26.323Z,4.18
2023-01-11T00:21:27.044Z,4.14
2023-01-11T00:22:26.958Z,4.18
2023-01-11T00:23:28.514Z,4.18
2023-01-11T00:24:28.731Z,4.16
2023-01-11T00:25:29.924Z,4.12
2023-01-11T00:26:30.524Z,4.14
2023-01-11T00:27:31.443Z,4.22
2023-01-11T00:28:31.658Z,4.16
2023-01-11T00:29:32.040Z,4.22
2023-01-11T00:30:33.243Z,4.24
2023-01-11T00:31:33.720Z,4.21
2023-01-11T00:32:34.829Z,4.24
2023-01-11T00:33:34.778Z,4.21
2023-01-11T00:34:35.171Z,4.24
2023-01-11T00:35:36.388Z,4.21
2023-01-11T00:36:36.702Z,4.24
2023-01-11T00:37:37.625Z,4.14
2023-01-11T00:38:38.132Z,4.2
2023-01-11T00:39:38.392Z,4.22
2023-01-11T00:40:38.591Z,4.24
2023-01-11T00:41:39.158Z,4.21
2023-01-11T00:42:39.818Z,4.3
2023-01-11T00:43:40.312Z,4.3
2023-01-11T00:44:40.267Z,4.28
2023-01-11T00:45:40.751Z,4.27
2023-01-11T00:46:41.360Z,4.32
2023-01-11T00:47:41.865Z,4.28
2023-01-11T00:48:42.803Z,4.25
2023-01-11T00:49:43.778Z,4.4
2023-01-11T00:50:44.009Z,4.36
2023-01-11T00:51:45.226Z,4.38
2023-01-11T00:52:45.139Z,4.36
2023-01-11T00:53:45.673Z,4.38
2023-01-11T00:54:45.316Z,4.43
2023-01-11T00:55:45.936Z,4.39
2023-01-11T00:56:46.583Z,4.48
2023-01-11T00:57:46.781Z,4.52
2023-01-11T00:58:47.293Z,4.53
2023-01-11T00:59:47.238Z,4.48
2023-01-11T01:00:48.482Z,4.45
2023-01-11T01:01:49.228Z,4.48
2023-01-11T01:02:50.610Z,4.48
2023-01-11T01:03:50.715Z,4.52
2023-01-11T01:04:50.633Z,4.39
2023-01-11T01:05:51.444Z,4.48
2023-01-11T01:06:52.492Z,4.5
2023-01-11T01:07:52.598Z,4.5
2023-01-11T01:08:53.273Z,4.45
2023-01-11T01:09:53.796Z,4.45
2023-01-11T01:10:54.132Z,4.46
2023-01-11T01:11:55.634Z,4.5
2023-01-11T01:12:55.846Z,4.52
2023-01-11T01:13:56.080Z,4.52
2023-01-11T01:14:56.305Z,4.43
2023-01-11T01:15:56.974Z,4.46
2023-01-11T01:16:57.200Z,4.57
2023-01-11T01:17:58.127Z,4.56
2023-01-11T01:18:58.608Z,4.58
2023-01-11T01:19:58.796Z,4.58
2023-01-11T01:21:00.086Z,4.6
2023-01-11T01:22:00.295Z,4.61
2023-01-11T01:23:00.814Z,4.56
2023-01-11T01:24:00.751Z,4.57
2023-01-11T01:25:01.689Z,4.53
2023-01-11T01:26:02.606Z,4.56
2023-01-11T01:27:03.240Z,4.58
2023-01-11T01:28:03.180Z,4.6
2023-01-11T01:29:03.831Z,4.57
2023-01-11T01:30:04.389Z,4.57
2023-01-11T01:31:04.461Z,4.64
2023-01-11T01:32:04.224Z,4.61
2023-01-11T01:33:05.438Z,4.71
2023-01-11T01:34:05.651Z,4.66
2023-01-11T01:35:05.852Z,4.71
2023-01-11T01:36:06.811Z,4.71
2023-01-11T01:37:08.149Z,4.68
2023-01-11T01:38:08.793Z,4.7
2023-01-11T01:39:09.324Z,4.74
2023-01-11T01:40:09.944Z,4.76
2023-01-11T01:41:11.170Z,4.83
2023-01-11T01:42:11.389Z,4.82
2023-01-11T01:43:11.312Z,4.82
2023-01-11T01:44:11.544Z,4.97
2023-01-11T01:45:12.770Z,4.9
2023-01-11T01:46:13.449Z,4.79
2023-01-11T01:47:13.346Z,4.89
2023-01-11T01:48:14.271Z,4.87
2023-01-11T01:49:15.483Z,4.94
2023-01-11T01:50:15.997Z,4.94
2023-01-11T01:51:16.946Z,4.92
2023-01-11T01:52:17.296Z,4.82
2023-01-11T01:53:18.241Z,4.9
2023-01-11T01:54:18.510Z,4.89
2023-01-11T01:55:19.199Z,4.97
2023-01-11T01:56:20.153Z,5
2023-01-11T01:57:21.236Z,4.97
2023-01-11T01:58:22.158Z,5.01
2023-01-11T01:59:22.549Z,5.01
2023-01-11T02:00:22.854Z,5
2023-01-11T02:01:22.853Z,4.98
2023-01-11T02:02:23.547Z,4.98
2023-01-11T02:03:23.902Z,5.04
2023-01-11T02:04:23.835Z,4.97
2023-01-11T02:05:25.346Z,5.05
2023-01-11T02:06:25.385Z,5.05
2023-01-11T02:07:25.991Z,5.15
2023-01-11T02:08:26.210Z,5.13
2023-01-11T02:09:26.142Z,5.12
2023-01-11T02:10:27.087Z,5.12
2023-01-11T02:11:27.618Z,5.25
2023-01-11T02:12:30.663Z,5.2
2023-01-11T02:13:29.144Z,5.18
2023-01-11T02:14:30.090Z,5.26
2023-01-11T02:15:31.095Z,5.25
2023-01-11T02:16:31.668Z,5.28
2023-01-11T02:17:32.009Z,5.37
2023-01-11T02:18:32.489Z,5.37
2023-01-11T02:19:32.693Z,5.4
2023-01-11T02:20:33.346Z,5.44
2023-01-11T02:21:34.581Z,5.38
2023-01-11T02:22:35.499Z,5.51
2023-01-11T02:23:35.133Z,5.46
2023-01-11T02:24:35.821Z,5.55
2023-01-11T02:25:37.305Z,5.54
2023-01-11T02:26:37.227Z,5.55
2023-01-11T02:27:38.242Z,5.46
2023-01-11T02:28:38.465Z,5.55
2023-01-11T02:29:39.427Z,5.54
2023-01-11T02:30:39.657Z,5.61
2023-01-11T02:31:40.096Z,5.65
2023-01-11T02:32:40.501Z,5.61
2023-01-11T02:33:41.007Z,5.64
2023-01-11T02:34:40.927Z,5.76
2023-01-11T02:35:41.622Z,5.65
2023-01-11T02:36:42.297Z,5.69
2023-01-11T02:37:43.336Z,5.72
2023-01-11T02:38:43.830Z,5.72
2023-01-11T02:39:44.048Z,5.67
2023-01-11T02:40:44.526Z,5.74
2023-01-11T02:41:45.002Z,5.64
2023-01-11T02:42:45.969Z,5.65
2023-01-11T02:43:46.381Z,5.58
2023-01-11T02:44:47.593Z,5.59
2023-01-11T02:45:47.817Z,5.58
2023-01-11T02:46:47.953Z,5.59
2023-01-11T02:47:48.756Z,5.56
2023-01-11T02:48:48.675Z,5.43
2023-01-11T02:49:49.591Z,5.58
2023-01-11T02:50:49.530Z,5.54
2023-01-11T02:51:50.229Z,5.55
2023-01-11T02:52:51.464Z,5.58
2023-01-11T02:53:51.658Z,5.47
2023-01-11T02:54:52.181Z,5.56
2023-01-11T02:55:53.125Z,5.58
2023-01-11T02:56:53.662Z,5.47
2023-01-11T02:57:53.990Z,5.58
2023-01-11T02:58:55.202Z,5.61
2023-01-11T02:59:55.436Z,5.55
2023-01-11T03:00:55.427Z,5.41
2023-01-11T03:01:56.204Z,5.52
2023-01-11T03:02:56.560Z,5.49
2023-01-11T03:03:57.300Z,5.54
2023-01-11T03:04:57.794Z,5.61
2023-01-11T03:05:58.001Z,5.54
2023-01-11T03:06:58.810Z,5.47
2023-01-11T03:07:58.515Z,5.51
2023-01-11T03:08:58.720Z,5.58
2023-01-11T03:09:59.296Z,5.58
2023-01-11T03:10:59.248Z,5.55
2023-01-11T03:11:59.737Z,5.55
2023-01-11T03:12:59.663Z,5.54
2023-01-11T03:14:00.879Z,5.55
2023-01-11T03:15:01.112Z,5.59
2023-01-11T03:16:01.637Z,5.52
2023-01-11T03:17:02.006Z,5.49
2023-01-11T03:18:02.344Z,5.55
2023-01-11T03:19:02.973Z,5.52
2023-01-11T03:20:02.907Z,5.62
2023-01-11T03:21:03.562Z,5.58
2023-01-11T03:22:04.781Z,5.61
2023-01-11T03:23:05.706Z,5.61
2023-01-11T03:24:06.206Z,5.62
2023-01-11T03:25:06.176Z,5.51
2023-01-11T03:26:06.409Z,5.62
2023-01-11T03:27:06.919Z,5.61
2023-01-11T03:28:07.716Z,5.62
2023-01-11T03:29:07.634Z,5.65
2023-01-11T03:30:08.582Z,5.58
2023-01-11T03:31:09.926Z,5.67
2023-01-11T03:32:10.173Z,5.59
2023-01-11T03:33:10.665Z,5.59
2023-01-11T03:34:11.565Z,5.61
2023-01-11T03:35:11.772Z,5.61
2023-01-11T03:36:12.252Z,5.65
2023-01-11T03:37:12.246Z,5.52
2023-01-11T03:38:13.573Z,5.61
2023-01-11T03:39:13.798Z,5.58
2023-01-11T03:40:13.821Z,5.59
2023-01-11T03:41:14.183Z,5.61
2023-01-11T03:42:15.390Z,5.61
2023-01-11T03:43:16.055Z,5.61
2023-01-11T03:44:17.309Z,5.64
2023-01-11T03:45:17.256Z,5.61
2023-01-11T03:46:18.557Z,5.64
2023-01-11T03:47:18.915Z,5.61
2023-01-11T03:48:19.639Z,5.62
2023-01-11T03:49:19.849Z,5.59
2023-01-11T03:50:20.484Z,5.59
2023-01-11T03:51:20.980Z,5.58
2023-01-11T03:52:21.216Z,5.55
2023-01-11T03:53:21.713Z,5.59
2023-01-11T03:54:22.205Z,5.56
2023-01-11T03:55:22.439Z,5.52
2023-01-11T03:56:23.627Z,5.62
2023-01-11T03:57:23.849Z,5.54
2023-01-11T03:58:24.335Z,5.59
2023-01-11T03:59:24.980Z,5.55
2023-01-11T04:00:25.958Z,5.54
2023-01-11T04:01:27.064Z,5.56
2023-01-11T04:02:27.307Z,5.56
2023-01-11T04:03:27.852Z,5.61
2023-01-11T04:04:28.677Z,5.64
2023-01-11T04:05:29.128Z,5.64
2023-01-11T04:06:29.925Z,5.61
2023-01-11T04:07:30.274Z,5.64
2023-01-11T04:08:31.310Z,5.55
2023-01-11T04:09:31.565Z,5.59
2023-01-11T04:10:32.356Z,5.61
2023-01-11T04:11:32.263Z,5.54
2023-01-11T04:12:32.948Z,5.64
2023-01-11T04:13:33.617Z,5.52
2023-01-11T04:14:33.968Z,5.54
2023-01-11T04:15:34.937Z,5.58
2023-01-11T04:16:35.771Z,5.46
2023-01-11T04:17:36.354Z,5.51
2023-01-11T04:18:36.960Z,5.52
2023-01-11T04:19:37.155Z,5.55
2023-01-11T04:20:37.359Z,5.56
2023-01-11T04:21:38.269Z,5.51
2023-01-11T04:22:38.793Z,5.52
2023-01-11T04:23:39.408Z,5.55
2023-01-11T04:24:39.617Z,5.55
2023-01-11T04:25:40.292Z,5.52
2023-01-11T04:26:41.492Z,5.56
2023-01-11T04:27:41.688Z,5.51
2023-01-11T04:28:41.682Z,5.52
2023-01-11T04:29:42.762Z,5.49
2023-01-11T04:30:42.988Z,5.49
2023-01-11T04:31:43.509Z,5.51
2023-01-11T04:32:43.355Z,5.47
2023-01-11T04:33:44.576Z,5.46
2023-01-11T04:34:44.772Z,5.41
2023-01-11T04:35:44.988Z,5.43
2023-01-11T04:36:45.195Z,5.43
2023-01-11T04:37:46.129Z,5.43
2023-01-11T04:38:46.457Z,5.37
2023-01-11T04:39:47.381Z,5.41
2023-01-11T04:40:47.604Z,5.36
2023-01-11T04:41:48.536Z,5.33
2023-01-11T04:42:48.759Z,5.37
2023-01-11T04:43:49.410Z,5.31
2023-01-11T04:44:50.034Z,5.25
2023-01-11T04:45:51.370Z,5.29
2023-01-11T04:46:51.506Z,5.23
2023-01-11T04:47:51.721Z,5.2
2023-01-11T04:48:52.296Z,5.16
2023-01-11T04:49:53.226Z,5.22
2023-01-11T04:50:53.289Z,5.15
2023-01-11T04:51:54.208Z,5.22
2023-01-11T04:52:54.581Z,5.16
2023-01-11T04:53:55.207Z,5.08
2023-01-11T04:54:56.415Z,5.16
2023-01-11T04:55:56.348Z,5.07
2023-01-11T04:56:56.586Z,5.05
2023-01-11T04:57:57.496Z,5.05
2023-01-11T04:58:57.854Z,5.08
2023-01-11T04:59:58.369Z,5.07
2023-01-11T05:00:58.742Z,5.07
2023-01-11T05:01:59.245Z,5.08
2023-01-11T05:02:59.918Z,4.95
2023-01-11T05:04:00.567Z,5.05
2023-01-11T05:05:00.936Z,4.89
2023-01-11T05:06:01.602Z,4.92
2023-01-11T05:07:02.751Z,5.01
2023-01-11T05:08:03.156Z,4.97
2023-01-11T05:09:03.886Z,4.87
2023-01-11T05:10:05.119Z,4.82
2023-01-11T05:11:05.068Z,4.89
2023-01-11T05:12:06.021Z,5
2023-01-11T05:13:06.949Z,4.84
2023-01-11T05:14:07.300Z,4.92
2023-01-11T05:15:07.937Z,4.82
2023-01-11T05:16:08.504Z,4.83
2023-01-11T05:17:08.909Z,4.95
2023-01-11T05:18:09.830Z,4.9
2023-01-11T05:19:10.585Z,4.84
2023-01-11T05:20:11.089Z,4.97
2023-01-11T05:21:12.008Z,4.87
2023-01-11T05:22:11.939Z,5.04
2023-01-11T05:23:12.892Z,4.98
2023-01-11T05:24:13.814Z,4.98
2023-01-11T05:25:14.007Z,4.98
2023-01-11T05:26:14.535Z,5
2023-01-11T05:27:14.732Z,4.98
2023-01-11T05:28:14.935Z,4.89
2023-01-11T05:29:15.252Z,5
2023-01-11T05:30:15.472Z,5.01
2023-01-11T05:31:15.773Z,5.04
2023-01-11T05:32:16.392Z,5.01
2023-01-11T05:33:16.873Z,5
2023-01-11T05:34:17.086Z,5.08
2023-01-11T05:35:17.023Z,5
2023-01-11T05:36:18.248Z,4.95
2023-01-11T05:37:19.500Z,5.01
2023-01-11T05:38:19.165Z,5.04
2023-01-11T05:39:19.554Z,5.05
2023-01-11T05:40:20.461Z,5.04
2023-01-11T05:41:21.135Z,4.97
2023-01-11T05:42:22.619Z,5.07
2023-01-11T05:43:23.245Z,5.1
2023-01-11T05:44:23.756Z,5.01
2023-01-11T05:45:23.686Z,5
2023-01-11T05:46:24.275Z,5.01
2023-01-11T05:47:25.239Z,5.01
2023-01-11T05:48:25.160Z,5.02
2023-01-11T05:49:25.865Z,5.04
2023-01-11T05:50:26.506Z,5
2023-01-11T05:51:27.711Z,4.98
2023-01-11T05:52:28.349Z,5.02
2023-01-11T05:53:29.022Z,5.05
2023-01-11T05:54:30.513Z,5.04
2023-01-11T05:55:30.724Z,5.07
2023-01-11T05:56:30.949Z,5.04
2023-01-11T05:57:30.589Z,5.07
2023-01-11T05:58:31.518Z,4.92
2023-01-11T05:59:32.837Z,5.02
2023-01-11T06:00:33.765Z,5.02
2023-01-11T06:01:34.268Z,4.98
2023-01-11T06:02:35.368Z,5.01
2023-01-11T06:03:35.938Z,4.98
2023-01-11T06:04:35.567Z,5.02
2023-01-11T06:05:36.484Z,5.08
2023-01-11T06:06:36.905Z,5
2023-01-11T06:07:37.226Z,4.98
2023-01-11T06:08:38.455Z,4.94
2023-01-11T06:09:38.490Z,4.98
2023-01-11T06:10:38.966Z,4.94
2023-01-11T06:11:38.910Z,4.94
2023-01-11T06:12:39.561Z,5.02
2023-01-11T06:13:40.491Z,4.98
2023-01-11T06:14:43.871Z,5
2023-01-11T06:15:41.824Z,5
2023-01-11T06:16:42.940Z,4.89
2023-01-11T06:17:42.764Z,4.89
2023-01-11T06:18:42.971Z,4.86
2023-01-11T06:19:44.002Z,4.89
2023-01-11T06:20:44.337Z,4.92
2023-01-11T06:21:45.291Z,4.89
2023-01-11T06:22:44.913Z,4.86
2023-01-11T06:23:45.869Z,4.87
2023-01-11T06:24:46.809Z,4.87
2023-01-11T06:25:49.993Z,4.87
2023-01-11T06:26:47.928Z,4.87
2023-01-11T06:27:49.152Z,4.83
2023-01-11T06:28:49.438Z,4.92
2023-01-11T06:29:50.167Z,4.97
2023-01-11T06:30:50.979Z,4.86
2023-01-11T06:31:51.633Z,4.86
2023-01-11T06:32:52.148Z,4.83
2023-01-11T06:33:52.099Z,4.87
2023-01-11T06:34:52.729Z,4.82
2023-01-11T06:35:53.958Z,4.82
2023-01-11T06:36:54.149Z,4.87
2023-01-11T06:37:53.798Z,4.92
2023-01-11T06:38:54.740Z,4.83
2023-01-11T06:39:55.217Z,4.76
2023-01-11T06:40:55.480Z,4.79
2023-01-11T06:41:55.701Z,4.75
2023-01-11T06:42:56.192Z,4.84
2023-01-11T06:43:55.853Z,4.84
2023-01-11T06:44:57.104Z,4.83
2023-01-11T06:45:57.562Z,4.78
2023-01-11T06:46:57.653Z,4.95
2023-01-11T06:47:57.596Z,4.83
2023-01-11T06:48:58.218Z,4.9
2023-01-11T06:49:59.500Z,4.9
2023-01-11T06:51:00.052Z,4.9
2023-01-11T06:52:00.324Z,4.97
2023-01-11T06:52:59.960Z,4.94
2023-01-11T06:54:01.195Z,4.95
2023-01-11T06:55:02.143Z,4.95
2023-01-11T06:56:02.427Z,5.02
2023-01-11T06:57:02.146Z,5.04
2023-01-11T06:58:03.423Z,4.95
2023-01-11T06:59:03.862Z,5
2023-01-11T07:00:04.748Z,5
2023-01-11T07:01:05.437Z,5
2023-01-11T07:02:05.997Z,4.92
2023-01-11T07:03:05.937Z,4.98
2023-01-11T07:04:06.423Z,5.01
2023-01-11T07:05:07.261Z,4.95
2023-01-11T07:06:07.514Z,5.07
2023-01-11T07:07:08.140Z,5.01
2023-01-11T07:08:08.782Z,4.97
2023-01-11T07:09:09.380Z,5.01
2023-01-11T07:10:09.404Z,5.07
2023-01-11T07:11:09.540Z,5.08
2023-01-11T07:12:10.026Z,5.05
2023-01-11T07:13:09.951Z,5.12
2023-01-11T07:14:10.373Z,5.15
2023-01-11T07:15:11.650Z,5.18
2023-01-11T07:16:12.133Z,5.1
2023-01-11T07:17:12.297Z,5.13
2023-01-11T07:18:12.874Z,5.1
2023-01-11T07:19:12.659Z,5.13
2023-01-11T07:20:13.999Z,5.1
2023-01-11T07:21:13.966Z,5.02
2023-01-11T07:22:14.608Z,5.08
2023-01-11T07:23:15.554Z,5
2023-01-11T07:24:15.803Z,5.05
2023-01-11T07:25:16.170Z,5.12
2023-01-11T07:26:17.828Z,5.08
2023-01-11T07:27:18.399Z,5.16
2023-01-11T07:28:18.656Z,5.22
2023-01-11T07:29:18.871Z,5.2
2023-01-11T07:30:18.875Z,5.22
2023-01-11T07:31:20.166Z,5.26
2023-01-11T07:32:20.266Z,5.31
2023-01-11T07:33:20.923Z,5.28
2023-01-11T07:34:21.452Z,5.33
2023-01-11T07:35:21.935Z,5.31
2023-01-11T07:36:22.759Z,5.33
2023-01-11T07:37:35.160Z,5.38
2023-01-11T07:38:23.378Z,5.4
2023-01-11T07:39:43.646Z,5.33
2023-01-11T07:40:32.096Z,5.31
2023-01-11T07:41:33.452Z,5.29
2023-01-11T07:42:33.771Z,5.26
2023-01-11T07:43:34.980Z,5.29
2023-01-11T07:44:34.971Z,5.23
2023-01-11T07:45:50.949Z,5.28
2023-01-11T07:46:36.544Z,5.22
2023-01-11T07:47:36.641Z,5.19
2023-01-11T07:48:36.868Z,5.2
2023-01-11T07:49:37.090Z,5.22
2023-01-11T07:50:37.801Z,5.25
2023-01-11T07:51:38.675Z,5.28
2023-01-11T07:52:38.879Z,5.37
2023-01-11T07:53:39.801Z,5.4
2023-01-11T07:54:40.125Z,5.52
2023-01-11T07:55:41.098Z,5.47
2023-01-11T07:56:41.316Z,5.52
2023-01-11T07:57:42.278Z,5.59
2023-01-11T07:58:43.506Z,5.61
2023-01-11T07:59:43.730Z,5.74
2023-01-11T08:00:44.692Z,5.77
2023-01-11T08:01:46.569Z,5.84
2023-01-11T08:02:46.420Z,5.87
2023-01-11T08:03:47.332Z,5.95
2023-01-11T08:04:47.684Z,5.92
2023-01-11T08:05:48.188Z,5.98
2023-01-11T08:06:49.122Z,6.09
2023-01-11T08:07:49.721Z,6.02
2023-01-11T08:08:50.397Z,6.01
2023-01-11T08:09:50.896Z,5.98
2023-01-11T08:10:51.823Z,5.91
2023-01-11T08:11:52.315Z,5.99
2023-01-11T08:12:52.559Z,6.06
2023-01-11T08:13:53.101Z,6.1
2023-01-11T08:14:54.121Z,6.16
2023-01-11T08:15:54.538Z,6.07
2023-01-11T08:16:54.201Z,6.05
2023-01-11T08:17:55.164Z,6.01
2023-01-11T08:18:55.811Z,6.13
2023-01-11T08:19:56.552Z,6.01
2023-01-11T08:20:57.420Z,6.1
2023-01-11T08:21:57.818Z,6.17
2023-01-11T08:22:58.342Z,6.26
2023-01-11T08:23:58.847Z,6.12
2023-01-11T08:24:59.152Z,6.19
2023-01-11T08:25:59.373Z,6.16
2023-01-11T08:26:59.769Z,6.36
2023-01-11T08:28:00.143Z,6.38
2023-01-11T08:29:00.361Z,6.25
2023-01-11T08:30:00.630Z,6.28
2023-01-11T08:31:01.514Z,6.17
2023-01-11T08:32:01.935Z,6.2
2023-01-11T08:33:02.312Z,6.22
2023-01-11T08:34:03.100Z,6.34
2023-01-11T08:35:03.349Z,6.34
2023-01-11T08:36:03.573Z,6.34
2023-01-11T08:37:04.073Z,6.29
2023-01-11T08:38:04.287Z,6.36
2023-01-11T08:39:04.537Z,6.39
2023-01-11T08:40:05.503Z,6.43
2023-01-11T08:41:06.007Z,6.46
2023-01-11T08:42:07.227Z,6.46
2023-01-11T08:43:07.755Z,6.53
2023-01-11T08:44:07.989Z,6.54
2023-01-11T08:45:08.213Z,6.6
2023-01-11T08:46:08.933Z,6.67
2023-01-11T08:47:09.039Z,6.71
2023-01-11T08:48:09.712Z,6.68
2023-01-11T08:49:10.769Z,6.77
2023-01-11T08:50:10.052Z,6.77
2023-01-11T08:51:10.435Z,6.8
2023-01-11T08:52:10.951Z,6.89
2023-01-11T08:53:12.739Z,7.01
2023-01-11T08:54:11.668Z,7.01
2023-01-11T08:55:12.976Z,7.01
2023-01-11T08:56:13.286Z,7.07
2023-01-11T08:57:13.956Z,7.13
2023-01-11T08:58:14.522Z,7.18
2023-01-11T08:59:15.292Z,7.13
2023-01-11T09:00:16.270Z,7.11
2023-01-11T09:01:17.034Z,7.15
2023-01-11T09:02:17.449Z,7.19
2023-01-11T09:03:18.506Z,7.15
2023-01-11T09:04:30.427Z,7.19
2023-01-11T09:05:19.074Z,7.18
2023-01-11T09:06:19.370Z,7.19
2023-01-11T09:07:20.034Z,7.23
2023-01-11T09:08:21.758Z,7.26
2023-01-11T09:09:21.537Z,7.23
2023-01-11T09:10:21.814Z,7.32
2023-01-11T09:11:22.096Z,7.32
2023-01-11T09:12:22.429Z,7.46
2023-01-11T09:13:22.574Z,7.47
2023-01-11T09:14:23.517Z,7.51
2023-01-11T09:15:23.976Z,7.55
2023-01-11T09:16:24.493Z,7.69
2023-01-11T09:17:24.764Z,7.66
2023-01-11T09:18:25.340Z,7.8
2023-01-11T09:19:25.867Z,7.75
2023-01-11T09:20:26.173Z,7.85
2023-01-11T09:21:26.792Z,7.9
2023-01-11T09:22:27.010Z,7.91
2023-01-11T09:23:27.218Z,8.03
2023-01-11T09:24:28.177Z,8.05
2023-01-11T09:25:28.814Z,8.13
2023-01-11T09:26:28.851Z,8.06
2023-01-11T09:27:29.246Z,8.16
2023-01-11T09:28:29.983Z,8.32
2023-01-11T09:29:30.322Z,8.39
2023-01-11T09:30:31.624Z,8.41
2023-01-11T09:31:31.836Z,8.61
2023-01-11T09:32:32.569Z,8.56
2023-01-11T09:33:33.184Z,8.66
2023-01-11T09:34:33.536Z,8.82
2023-01-11T09:35:34.029Z,8.84
2023-01-11T09:36:35.036Z,8.79
2023-01-11T09:37:35.613Z,8.79
2023-01-11T09:38:36.216Z,8.92
2023-01-11T09:39:36.182Z,8.81
2023-01-11T09:40:36.519Z,8.75
2023-01-11T09:41:36.911Z,8.78
2023-01-11T09:42:37.592Z,8.71
2023-01-11T09:43:37.652Z,8.64
2023-01-11T09:44:38.426Z,8.68
2023-01-11T09:45:38.943Z,8.64
2023-01-11T09:46:39.542Z,8.68
2023-01-11T09:47:39.974Z,8.71
2023-01-11T09:48:40.085Z,8.84
2023-01-11T09:49:40.353Z,8.95
2023-01-11T09:50:40.803Z,8.95
2023-01-11T09:51:41.850Z,9.05
2023-01-11T09:52:42.080Z,9.12
2023-01-11T09:53:42.677Z,9.33
2023-01-11T09:54:43.685Z,9.49
2023-01-11T09:55:44.675Z,9.62
2023-01-11T09:56:44.971Z,9.64
2023-01-11T09:57:45.543Z,9.74
2023-01-11T09:58:45.334Z,9.69
2023-01-11T09:59:46.323Z,9.72
2023-01-11T10:00:46.975Z,9.74
2023-01-11T10:01:46.680Z,9.74
2023-01-11T10:02:47.259Z,9.74
2023-01-11T10:03:47.815Z,9.84
2023-01-11T10:04:48.270Z,9.87
2023-01-11T10:05:48.429Z,9.92
2023-01-11T10:06:48.656Z,9.95
2023-01-11T10:07:49.622Z,9.97
2023-01-11T10:19:33.263Z,10.07
2023-01-11T10:19:53.104Z,9.99
2023-01-11T10:20:52.977Z,9.99
2023-01-11T10:21:53.504Z,9.9
2023-01-11T10:22:54.025Z,10.03
2023-01-11T10:23:53.964Z,9.95
2023-01-11T10:24:55.217Z,9.92
2023-01-11T10:25:56.446Z,9.95
2023-01-11T10:26:56.967Z,10
2023-01-11T10:27:57.580Z,9.99
2023-01-11T10:28:57.830Z,10.05
2023-01-11T10:29:58.144Z,10.03
2023-01-11T10:30:58.594Z,10.15
2023-01-11T10:31:59.130Z,10.25
2023-01-11T10:33:00.133Z,10.25
2023-01-11T10:34:00.705Z,10.41
2023-01-11T10:35:01.320Z,10.46
2023-01-11T10:36:01.954Z,10.65
2023-01-11T10:37:02.223Z,10.68
2023-01-11T10:38:02.194Z,10.72
2023-01-11T10:39:02.462Z,10.77
2023-01-11T10:40:02.734Z,10.87
2023-01-11T10:41:03.471Z,10.86
2023-01-11T10:42:03.721Z,10.97
2023-01-11T10:43:05.012Z,10.94
2023-01-11T10:44:05.975Z,11.08
2023-01-11T10:45:07.219Z,11.19
2023-01-11T10:47:07.963Z,11.3
2023-01-11T10:48:08.618Z,11.37
2023-01-11T10:49:09.171Z,11.52
2023-01-11T10:50:12.473Z,11.51
2023-01-11T10:51:11.171Z,11.59
2023-01-11T10:53:12.645Z,11.62
2023-01-11T10:54:13.377Z,11.73
2023-01-11T10:55:13.743Z,11.93
2023-01-11T10:56:15.271Z,11.97
2023-01-11T10:57:15.825Z,11.99
2023-01-11T10:58:16.049Z,12.02
2023-01-11T10:59:16.944Z,11.97
2023-01-11T11:00:16.538Z,11.81
2023-01-11T11:01:18.303Z,11.76
2023-01-11T11:02:19.272Z,11.63
2023-01-11T11:03:18.255Z,11.59
2023-01-11T11:04:18.540Z,11.38
2023-01-11T11:05:18.518Z,11.35
2023-01-11T11:06:18.887Z,11.33
2023-01-11T11:07:35.978Z,11.25
2023-01-11T11:08:20.657Z,11.23
2023-01-11T11:09:20.939Z,11.05
2023-01-11T11:10:22.329Z,11
2023-01-11T11:11:22.660Z,11.07
2023-01-11T11:12:23.020Z,10.94
2023-01-11T11:13:23.535Z,10.89
2023-01-11T11:14:24.049Z,10.79
2023-01-11T11:15:24.592Z,10.75
2023-01-11T11:16:25.290Z,10.68
2023-01-11T11:17:25.524Z,10.57
2023-01-11T11:18:26.765Z,10.43
2023-01-11T11:19:27.862Z,10.38
2023-01-11T11:20:28.264Z,10.34
2023-01-11T11:21:28.581Z,10.38
2023-01-11T11:22:29.959Z,10.27
2023-01-11T11:23:30.169Z,10.21
2023-01-11T11:24:30.089Z,10.25
2023-01-11T11:25:30.779Z,10.25
2023-01-11T11:26:32.038Z,10.27
2023-01-11T11:27:31.787Z,10.31
2023-01-11T11:28:33.041Z,10.28
2023-01-11T11:29:33.284Z,10.24
2023-01-11T11:30:33.568Z,10.23
2023-01-11T11:31:35.004Z,10.2
2023-01-11T11:32:37.258Z,10.13
2023-01-11T11:33:35.547Z,10.21
2023-01-11T11:34:36.120Z,10.15
2023-01-11T11:35:36.434Z,10.1
2023-01-11T11:36:37.074Z,10.09
2023-01-11T11:37:37.321Z,10.12
2023-01-11T11:38:37.865Z,10.05
2023-01-11T11:39:38.105Z,10.06
2023-01-11T11:40:38.515Z,9.99
2023-01-11T11:41:39.019Z,10.07
2023-01-11T11:42:39.242Z,10.07
2023-01-11T11:43:40.262Z,10.05
2023-01-11T11:44:41.377Z,10.06
2023-01-11T11:45:42.260Z,9.92
2023-01-11T11:46:42.671Z,9.97
2023-01-11T11:47:42.603Z,9.99
2023-01-11T11:48:43.652Z,9.99
2023-01-11T11:49:44.311Z,9.97
2023-01-11T11:50:51.199Z,9.92
2023-01-11T11:51:45.365Z,10.06
2023-01-11T11:52:46.340Z,10.02
2023-01-11T11:53:46.898Z,10.06
2023-01-11T11:54:46.951Z,10.06
2023-01-11T11:55:47.176Z,10
2023-01-11T11:56:47.733Z,10.02
2023-01-11T11:57:47.362Z,9.92
2023-01-11T11:58:48.335Z,9.92
2023-01-11T11:59:48.760Z,9.85
2023-01-11T12:00:50.064Z,9.84
2023-01-11T12:01:50.833Z,9.87
2023-01-11T12:02:51.484Z,9.73
2023-01-11T12:03:51.435Z,9.74
2023-01-11T12:04:52.130Z,9.84
2023-01-11T12:05:52.611Z,9.84
2023-01-11T12:06:55.000Z,9.85
2023-01-11T12:08:00.576Z,9.82
2023-01-11T12:08:54.104Z,9.91
2023-01-11T12:09:54.028Z,9.9
2023-01-11T12:10:54.978Z,10.03
2023-01-11T12:11:56.292Z,10.02
2023-01-11T12:12:56.254Z,10.02
2023-01-11T12:13:57.555Z,10.03
2023-01-11T12:14:58.470Z,10.05
2023-01-11T12:15:58.673Z,10.21
2023-01-11T12:16:59.175Z,10.12
2023-01-11T12:17:59.160Z,10.12
2023-01-11T12:18:59.091Z,10.25
2023-01-11T12:20:00.128Z,10.13
2023-01-11T12:21:00.395Z,10.21
2023-01-11T12:22:01.063Z,10.17
2023-01-11T12:23:01.653Z,10.24
2023-01-11T12:24:02.582Z,10.18
2023-01-11T12:25:03.559Z,10.28
2023-01-11T12:26:04.543Z,10.21
2023-01-11T12:27:04.729Z,10.15
2023-01-11T12:28:04.902Z,10.1
2023-01-11T12:29:05.835Z,10.09
2023-01-11T12:30:06.750Z,10.07
2023-01-11T12:31:07.577Z,10.13
2023-01-11T12:32:07.637Z,10.13
2023-01-11T12:33:08.008Z,10.12
2023-01-11T12:34:09.281Z,10.13
2023-01-11T12:35:09.951Z,10.06
2023-01-11T12:36:10.460Z,10.05
2023-01-11T12:37:11.395Z,10.13
2023-01-11T12:38:11.661Z,10.09
2023-01-11T12:39:12.167Z,10.07
2023-01-11T12:40:12.682Z,10.06
2023-01-11T12:41:14.709Z,10.07
2023-01-11T12:42:13.461Z,10
2023-01-11T12:43:14.106Z,10.05
2023-01-11T12:44:15.014Z,10.02
2023-01-11T12:45:14.945Z,9.94
2023-01-11T12:46:16.432Z,9.97
2023-01-11T12:47:18.252Z,9.92
2023-01-11T12:48:17.466Z,9.97
2023-01-11T12:49:18.125Z,9.91
2023-01-11T12:50:18.706Z,9.84
2023-01-11T12:51:19.694Z,9.85
2023-01-11T12:52:19.779Z,9.84
2023-01-11T12:53:19.803Z,9.84
2023-01-11T12:54:21.049Z,9.84
2023-01-11T12:55:21.322Z,9.88
2023-01-11T12:56:21.846Z,9.85
2023-01-11T12:57:22.363Z,9.73
2023-01-11T12:58:22.330Z,9.74
2023-01-11T12:59:23.002Z,9.77
2023-01-11T13:00:23.334Z,9.73
2023-01-11T13:01:24.055Z,9.72
2023-01-11T13:02:24.132Z,9.62
2023-01-11T13:03:24.825Z,9.7
2023-01-11T13:04:25.402Z,9.58
2023-01-11T13:05:25.694Z,9.62
2023-01-11T13:06:26.257Z,9.54
2023-01-11T13:07:26.220Z,9.56
2023-01-11T13:08:26.635Z,9.52
2023-01-11T13:09:27.150Z,9.52
2023-01-11T13:10:27.385Z,9.52
2023-01-11T13:11:27.879Z,9.55
2023-01-11T13:12:28.171Z,9.55
2023-01-11T13:13:29.169Z,9.48
2023-01-11T13:14:29.811Z,9.48
2023-01-11T13:15:31.559Z,9.48
2023-01-11T13:16:31.007Z,9.47
2023-01-11T13:17:30.847Z,9.42
2023-01-11T13:18:31.781Z,9.45
2023-01-11T13:19:31.986Z,9.51
2023-01-11T13:20:59.135Z,9.49
2023-01-11T13:21:32.749Z,9.54
2023-01-11T13:22:33.447Z,9.52
2023-01-11T13:23:33.530Z,9.54
2023-01-11T13:24:35.080Z,9.54
2023-01-11T13:25:35.374Z,9.56
2023-01-11T13:26:36.182Z,9.52
2023-01-11T13:27:36.402Z,9.56
2023-01-11T13:28:36.916Z,9.48
2023-01-11T13:29:37.175Z,9.49
2023-01-11T13:30:38.652Z,9.51
2023-01-11T13:31:38.498Z,9.52
2023-01-11T13:32:39.086Z,9.42
2023-01-11T13:33:39.399Z,9.4
2023-01-11T13:34:39.384Z,9.45
2023-01-11T13:35:40.702Z,9.51
2023-01-11T13:36:41.132Z,9.47
2023-01-11T13:37:41.824Z,9.51